sensor_id;sensor_type;location;lat;lon;timestamp;P1;durP1;ratioP1;P2;durP2;ratioP2
48853;SDS011;34673;52.808;17.856;2023-09-30T00:02:00;12.07;;;7.32;;
48853;SDS011;34673;52.808;17.856;2023-09-30T00:04:27;11.95;;;7.15;;
48853;SDS011;34673;52.808;17.856;2023-09-30T00:06:56;12.10;;;6.97;;
48853;SDS011;34673;52.808;17.856;2023-09-30T00:09:23;12.10;;;7.15;;
48853;SDS011;34673;52.808;17.856;2023-09-30T00:11:51;10.15;;;6.90;;
48853;SDS011;34673;52.808;17.856;2023-09-30T00:14:18;12.88;;;7.03;;
48853;SDS011;34673;52.808;17.856;2023-09-30T00:16:45;9.05;;;6.35;;
48853;SDS011;34673;52.808;17.856;2023-09-30T00:19:12;10.40;;;6.85;;
48853;SDS011;34673;52.808;17.856;2023-09-30T00:21:40;9.75;;;6.32;;
48853;SDS011;34673;52.808;17.856;2023-09-30T00:24:07;11.05;;;6.53;;
48853;SDS011;34673;52.808;17.856;2023-09-30T00:26:35;12.32;;;7.05;;
48853;SDS011;34673;52.808;17.856;2023-09-30T00:29:02;12.52;;;6.93;;
48853;SDS011;34673;52.808;17.856;2023-09-30T00:34:00;12.50;;;6.70;;
48853;SDS011;34673;52.808;17.856;2023-09-30T00:36:27;17.52;;;7.70;;
48853;SDS011;34673;52.808;17.856;2023-09-30T00:38:54;11.48;;;7.50;;
48853;SDS011;34673;52.808;17.856;2023-09-30T00:41:22;15.70;;;7.00;;
48853;SDS011;34673;52.808;17.856;2023-09-30T00:43:49;12.75;;;7.85;;
48853;SDS011;34673;52.808;17.856;2023-09-30T00:48:57;13.73;;;7.55;;
48853;SDS011;34673;52.808;17.856;2023-09-30T00:51:25;14.50;;;7.50;;
48853;SDS011;34673;52.808;17.856;2023-09-30T00:53:54;17.95;;;8.07;;
48853;SDS011;34673;52.808;17.856;2023-09-30T00:56:26;14.43;;;8.32;;
48853;SDS011;34673;52.808;17.856;2023-09-30T00:58:54;12.57;;;7.90;;
48853;SDS011;34673;52.808;17.856;2023-09-30T01:01:22;14.00;;;7.43;;
48853;SDS011;34673;52.808;17.856;2023-09-30T01:03:50;15.15;;;7.70;;
48853;SDS011;34673;52.808;17.856;2023-09-30T01:06:19;13.63;;;7.55;;
48853;SDS011;34673;52.808;17.856;2023-09-30T01:08:46;13.55;;;7.63;;
48853;SDS011;34673;52.808;17.856;2023-09-30T01:11:13;12.38;;;7.47;;
48853;SDS011;34673;52.808;17.856;2023-09-30T01:13:42;12.82;;;7.10;;
48853;SDS011;34673;52.808;17.856;2023-09-30T01:16:11;12.20;;;6.80;;
48853;SDS011;34673;52.808;17.856;2023-09-30T01:18:39;11.65;;;7.00;;
48853;SDS011;34673;52.808;17.856;2023-09-30T01:21:10;10.65;;;6.78;;
48853;SDS011;34673;52.808;17.856;2023-09-30T01:23:40;15.73;;;7.30;;
48853;SDS011;34673;52.808;17.856;2023-09-30T01:26:09;12.02;;;6.78;;
48853;SDS011;34673;52.808;17.856;2023-09-30T01:28:39;10.57;;;6.85;;
48853;SDS011;34673;52.808;17.856;2023-09-30T01:31:06;12.27;;;7.00;;
48853;SDS011;34673;52.808;17.856;2023-09-30T01:33:34;14.93;;;6.82;;
48853;SDS011;34673;52.808;17.856;2023-09-30T01:36:02;13.93;;;7.07;;
48853;SDS011;34673;52.808;17.856;2023-09-30T01:38:29;11.65;;;7.30;;
48853;SDS011;34673;52.808;17.856;2023-09-30T01:40:57;12.70;;;7.28;;
48853;SDS011;34673;52.808;17.856;2023-09-30T01:43:26;11.82;;;7.72;;
48853;SDS011;34673;52.808;17.856;2023-09-30T01:45:54;13.25;;;7.10;;
48853;SDS011;34673;52.808;17.856;2023-09-30T01:48:22;10.23;;;7.57;;
48853;SDS011;34673;52.808;17.856;2023-09-30T01:50:49;9.85;;;7.10;;
48853;SDS011;34673;52.808;17.856;2023-09-30T01:53:16;11.93;;;7.78;;
48853;SDS011;34673;52.808;17.856;2023-09-30T01:55:43;10.63;;;7.60;;
48853;SDS011;34673;52.808;17.856;2023-09-30T01:58:11;10.52;;;7.78;;
48853;SDS011;34673;52.808;17.856;2023-09-30T02:00:39;12.02;;;8.18;;
48853;SDS011;34673;52.808;17.856;2023-09-30T02:03:07;11.93;;;7.65;;
48853;SDS011;34673;52.808;17.856;2023-09-30T02:05:34;11.52;;;8.60;;
48853;SDS011;34673;52.808;17.856;2023-09-30T02:08:03;13.05;;;8.18;;
48853;SDS011;34673;52.808;17.856;2023-09-30T02:10:32;11.43;;;7.65;;
48853;SDS011;34673;52.808;17.856;2023-09-30T02:13:00;12.38;;;8.68;;
48853;SDS011;34673;52.808;17.856;2023-09-30T02:15:28;13.80;;;8.43;;
48853;SDS011;34673;52.808;17.856;2023-09-30T02:17:55;15.77;;;8.45;;
48853;SDS011;34673;52.808;17.856;2023-09-30T02:20:23;11.95;;;8.15;;
48853;SDS011;34673;52.808;17.856;2023-09-30T02:22:52;12.83;;;8.47;;
48853;SDS011;34673;52.808;17.856;2023-09-30T02:25:21;13.38;;;8.57;;
48853;SDS011;34673;52.808;17.856;2023-09-30T02:27:50;13.70;;;9.43;;
48853;SDS011;34673;52.808;17.856;2023-09-30T02:30:17;14.27;;;9.05;;
48853;SDS011;34673;52.808;17.856;2023-09-30T02:32:44;17.90;;;9.32;;
48853;SDS011;34673;52.808;17.856;2023-09-30T02:35:13;13.38;;;9.60;;
48853;SDS011;34673;52.808;17.856;2023-09-30T02:37:42;12.70;;;9.18;;
48853;SDS011;34673;52.808;17.856;2023-09-30T02:40:10;11.80;;;9.27;;
48853;SDS011;34673;52.808;17.856;2023-09-30T02:42:38;15.85;;;9.57;;
48853;SDS011;34673;52.808;17.856;2023-09-30T02:45:07;17.17;;;9.77;;
48853;SDS011;34673;52.808;17.856;2023-09-30T02:47:36;12.15;;;9.07;;
48853;SDS011;34673;52.808;17.856;2023-09-30T02:50:08;14.38;;;9.20;;
48853;SDS011;34673;52.808;17.856;2023-09-30T02:52:38;16.20;;;10.15;;
48853;SDS011;34673;52.808;17.856;2023-09-30T02:57:36;14.35;;;9.90;;
48853;SDS011;34673;52.808;17.856;2023-09-30T03:00:05;13.77;;;9.60;;
48853;SDS011;34673;52.808;17.856;2023-09-30T03:02:54;14.75;;;9.98;;
48853;SDS011;34673;52.808;17.856;2023-09-30T03:05:23;16.55;;;10.52;;
48853;SDS011;34673;52.808;17.856;2023-09-30T03:07:50;16.75;;;11.00;;
48853;SDS011;34673;52.808;17.856;2023-09-30T03:10:18;16.95;;;11.32;;
48853;SDS011;34673;52.808;17.856;2023-09-30T03:12:47;17.33;;;11.70;;
48853;SDS011;34673;52.808;17.856;2023-09-30T03:15:15;18.30;;;11.35;;
48853;SDS011;34673;52.808;17.856;2023-09-30T03:17:43;16.45;;;11.13;;
48853;SDS011;34673;52.808;17.856;2023-09-30T03:20:10;15.98;;;11.27;;
48853;SDS011;34673;52.808;17.856;2023-09-30T03:22:39;16.42;;;11.30;;
48853;SDS011;34673;52.808;17.856;2023-09-30T03:25:07;13.57;;;11.80;;
48853;SDS011;34673;52.808;17.856;2023-09-30T03:27:36;14.18;;;11.52;;
48853;SDS011;34673;52.808;17.856;2023-09-30T03:30:04;18.00;;;12.50;;
48853;SDS011;34673;52.808;17.856;2023-09-30T03:32:32;20.15;;;12.10;;
48853;SDS011;34673;52.808;17.856;2023-09-30T03:35:00;16.52;;;12.40;;
48853;SDS011;34673;52.808;17.856;2023-09-30T03:37:27;15.77;;;11.93;;
48853;SDS011;34673;52.808;17.856;2023-09-30T03:39:55;20.23;;;11.63;;
48853;SDS011;34673;52.808;17.856;2023-09-30T03:42:23;17.15;;;12.38;;
48853;SDS011;34673;52.808;17.856;2023-09-30T03:44:51;15.98;;;11.88;;
48853;SDS011;34673;52.808;17.856;2023-09-30T03:47:18;16.08;;;12.07;;
48853;SDS011;34673;52.808;17.856;2023-09-30T03:49:46;18.65;;;11.70;;
48853;SDS011;34673;52.808;17.856;2023-09-30T03:52:14;14.98;;;11.38;;
48853;SDS011;34673;52.808;17.856;2023-09-30T03:54:42;17.50;;;11.48;;
48853;SDS011;34673;52.808;17.856;2023-09-30T03:57:09;16.73;;;11.32;;
48853;SDS011;34673;52.808;17.856;2023-09-30T03:59:39;17.85;;;11.85;;
48853;SDS011;34673;52.808;17.856;2023-09-30T04:02:06;14.90;;;11.50;;
48853;SDS011;34673;52.808;17.856;2023-09-30T04:04:34;16.33;;;10.75;;
48853;SDS011;34673;52.808;17.856;2023-09-30T04:07:03;14.75;;;10.35;;
48853;SDS011;34673;52.808;17.856;2023-09-30T04:09:32;14.35;;;9.55;;
48853;SDS011;34673;52.808;17.856;2023-09-30T04:11:59;15.65;;;9.88;;
48853;SDS011;34673;52.808;17.856;2023-09-30T04:14:27;16.77;;;9.57;;
48853;SDS011;34673;52.808;17.856;2023-09-30T04:16:55;14.68;;;9.30;;
48853;SDS011;34673;52.808;17.856;2023-09-30T04:19:22;13.95;;;8.80;;
48853;SDS011;34673;52.808;17.856;2023-09-30T04:21:49;14.82;;;8.60;;
48853;SDS011;34673;52.808;17.856;2023-09-30T04:24:17;14.25;;;7.47;;
48853;SDS011;34673;52.808;17.856;2023-09-30T04:26:47;11.75;;;6.93;;
48853;SDS011;34673;52.808;17.856;2023-09-30T04:29:14;12.10;;;6.70;;
48853;SDS011;34673;52.808;17.856;2023-09-30T04:31:42;13.55;;;5.70;;
48853;SDS011;34673;52.808;17.856;2023-09-30T04:34:10;10.73;;;6.03;;
48853;SDS011;34673;52.808;17.856;2023-09-30T04:36:38;9.48;;;4.78;;
48853;SDS011;34673;52.808;17.856;2023-09-30T04:39:05;10.90;;;3.80;;
48853;SDS011;34673;52.808;17.856;2023-09-30T04:41:32;6.20;;;3.00;;
48853;SDS011;34673;52.808;17.856;2023-09-30T04:43:59;8.30;;;3.13;;
48853;SDS011;34673;52.808;17.856;2023-09-30T04:46:27;7.03;;;3.30;;
48853;SDS011;34673;52.808;17.856;2023-09-30T04:48:54;8.25;;;3.17;;
48853;SDS011;34673;52.808;17.856;2023-09-30T04:51:22;5.35;;;2.40;;
48853;SDS011;34673;52.808;17.856;2023-09-30T04:53:49;7.63;;;2.70;;
48853;SDS011;34673;52.808;17.856;2023-09-30T04:56:16;8.55;;;2.90;;
48853;SDS011;34673;52.808;17.856;2023-09-30T04:58:43;8.98;;;2.70;;
48853;SDS011;34673;52.808;17.856;2023-09-30T05:01:10;6.90;;;2.33;;
48853;SDS011;34673;52.808;17.856;2023-09-30T05:03:39;6.40;;;1.98;;
48853;SDS011;34673;52.808;17.856;2023-09-30T05:06:06;4.43;;;1.70;;
48853;SDS011;34673;52.808;17.856;2023-09-30T05:08:34;5.57;;;1.40;;
48853;SDS011;34673;52.808;17.856;2023-09-30T05:11:02;6.30;;;1.95;;
48853;SDS011;34673;52.808;17.856;2023-09-30T05:13:29;5.10;;;1.60;;
48853;SDS011;34673;52.808;17.856;2023-09-30T05:15:56;5.85;;;1.80;;
48853;SDS011;34673;52.808;17.856;2023-09-30T05:18:24;8.20;;;2.38;;
48853;SDS011;34673;52.808;17.856;2023-09-30T05:20:51;7.78;;;2.00;;
48853;SDS011;34673;52.808;17.856;2023-09-30T05:23:18;8.13;;;1.85;;
48853;SDS011;34673;52.808;17.856;2023-09-30T05:25:46;7.47;;;2.10;;
48853;SDS011;34673;52.808;17.856;2023-09-30T05:28:13;13.20;;;2.13;;
48853;SDS011;34673;52.808;17.856;2023-09-30T05:30:41;7.55;;;2.25;;
48853;SDS011;34673;52.808;17.856;2023-09-30T05:33:08;6.50;;;1.98;;
48853;SDS011;34673;52.808;17.856;2023-09-30T05:35:40;6.40;;;1.80;;
48853;SDS011;34673;52.808;17.856;2023-09-30T05:38:08;6.00;;;2.10;;
48853;SDS011;34673;52.808;17.856;2023-09-30T05:40:37;9.23;;;2.00;;
48853;SDS011;34673;52.808;17.856;2023-09-30T05:43:04;7.32;;;2.10;;
48853;SDS011;34673;52.808;17.856;2023-09-30T05:45:32;6.85;;;2.28;;
48853;SDS011;34673;52.808;17.856;2023-09-30T05:48:03;5.97;;;2.10;;
48853;SDS011;34673;52.808;17.856;2023-09-30T05:50:33;6.00;;;1.88;;
48853;SDS011;34673;52.808;17.856;2023-09-30T05:53:03;7.55;;;1.85;;
48853;SDS011;34673;52.808;17.856;2023-09-30T05:58:01;10.75;;;2.20;;
48853;SDS011;34673;52.808;17.856;2023-09-30T06:00:28;8.18;;;2.10;;
48853;SDS011;34673;52.808;17.856;2023-09-30T06:02:58;6.53;;;2.13;;
48853;SDS011;34673;52.808;17.856;2023-09-30T06:05:27;8.35;;;1.80;;
48853;SDS011;34673;52.808;17.856;2023-09-30T06:07:59;9.40;;;2.47;;
48853;SDS011;34673;52.808;17.856;2023-09-30T06:10:30;7.82;;;2.30;;
48853;SDS011;34673;52.808;17.856;2023-09-30T06:12:58;7.35;;;2.30;;
48853;SDS011;34673;52.808;17.856;2023-09-30T06:15:26;7.43;;;1.80;;
48853;SDS011;34673;52.808;17.856;2023-09-30T06:17:54;9.77;;;2.22;;
48853;SDS011;34673;52.808;17.856;2023-09-30T06:20:23;7.97;;;2.22;;
48853;SDS011;34673;52.808;17.856;2023-09-30T06:22:54;9.40;;;2.38;;
48853;SDS011;34673;52.808;17.856;2023-09-30T06:25:22;8.25;;;2.33;;
48853;SDS011;34673;52.808;17.856;2023-09-30T06:27:51;7.80;;;2.60;;
48853;SDS011;34673;52.808;17.856;2023-09-30T06:30:19;7.50;;;2.20;;
48853;SDS011;34673;52.808;17.856;2023-09-30T06:32:48;13.13;;;2.42;;
48853;SDS011;34673;52.808;17.856;2023-09-30T06:35:15;10.75;;;2.78;;
48853;SDS011;34673;52.808;17.856;2023-09-30T06:37:45;9.38;;;2.47;;
48853;SDS011;34673;52.808;17.856;2023-09-30T06:40:12;11.57;;;2.60;;
48853;SDS011;34673;52.808;17.856;2023-09-30T06:42:40;12.05;;;2.88;;
48853;SDS011;34673;52.808;17.856;2023-09-30T06:45:09;12.27;;;3.08;;
48853;SDS011;34673;52.808;17.856;2023-09-30T06:47:37;9.25;;;2.63;;
48853;SDS011;34673;52.808;17.856;2023-09-30T06:50:09;9.38;;;2.40;;
48853;SDS011;34673;52.808;17.856;2023-09-30T06:52:39;10.05;;;2.83;;
48853;SDS011;34673;52.808;17.856;2023-09-30T06:55:08;13.63;;;2.45;;
48853;SDS011;34673;52.808;17.856;2023-09-30T06:57:36;11.55;;;2.60;;
48853;SDS011;34673;52.808;17.856;2023-09-30T07:00:05;8.40;;;2.47;;
48853;SDS011;34673;52.808;17.856;2023-09-30T07:02:36;10.82;;;2.60;;
48853;SDS011;34673;52.808;17.856;2023-09-30T07:05:09;9.15;;;2.38;;
48853;SDS011;34673;52.808;17.856;2023-09-30T07:07:38;10.80;;;2.95;;
48853;SDS011;34673;52.808;17.856;2023-09-30T07:10:12;13.18;;;3.05;;
48853;SDS011;34673;52.808;17.856;2023-09-30T07:12:41;8.43;;;2.20;;
48853;SDS011;34673;52.808;17.856;2023-09-30T07:15:09;10.93;;;2.97;;
48853;SDS011;34673;52.808;17.856;2023-09-30T07:17:36;12.02;;;2.78;;
48853;SDS011;34673;52.808;17.856;2023-09-30T07:20:07;12.05;;;2.80;;
48853;SDS011;34673;52.808;17.856;2023-09-30T07:22:36;9.80;;;2.80;;
48853;SDS011;34673;52.808;17.856;2023-09-30T07:25:15;12.38;;;2.60;;
48853;SDS011;34673;52.808;17.856;2023-09-30T07:27:44;11.27;;;2.95;;
48853;SDS011;34673;52.808;17.856;2023-09-30T07:30:12;10.02;;;2.80;;
48853;SDS011;34673;52.808;17.856;2023-09-30T07:32:45;11.25;;;3.22;;
48853;SDS011;34673;52.808;17.856;2023-09-30T07:35:13;10.38;;;2.85;;
48853;SDS011;34673;52.808;17.856;2023-09-30T07:37:42;11.75;;;2.90;;
48853;SDS011;34673;52.808;17.856;2023-09-30T07:40:11;10.00;;;2.75;;
48853;SDS011;34673;52.808;17.856;2023-09-30T07:42:39;13.95;;;3.20;;
48853;SDS011;34673;52.808;17.856;2023-09-30T07:45:06;12.93;;;2.95;;
48853;SDS011;34673;52.808;17.856;2023-09-30T07:47:34;13.57;;;3.13;;
48853;SDS011;34673;52.808;17.856;2023-09-30T07:50:02;11.93;;;3.20;;
48853;SDS011;34673;52.808;17.856;2023-09-30T07:52:33;13.75;;;3.28;;
48853;SDS011;34673;52.808;17.856;2023-09-30T07:55:00;11.55;;;3.00;;
48853;SDS011;34673;52.808;17.856;2023-09-30T07:57:27;12.70;;;3.50;;
48853;SDS011;34673;52.808;17.856;2023-09-30T07:59:55;15.55;;;3.20;;
48853;SDS011;34673;52.808;17.856;2023-09-30T08:02:22;12.55;;;3.13;;
48853;SDS011;34673;52.808;17.856;2023-09-30T08:04:51;14.73;;;3.33;;
48853;SDS011;34673;52.808;17.856;2023-09-30T08:07:18;12.60;;;3.58;;
48853;SDS011;34673;52.808;17.856;2023-09-30T08:09:47;14.20;;;2.90;;
48853;SDS011;34673;52.808;17.856;2023-09-30T08:12:14;10.68;;;3.00;;
48853;SDS011;34673;52.808;17.856;2023-09-30T08:14:42;15.35;;;3.60;;
48853;SDS011;34673;52.808;17.856;2023-09-30T08:17:11;14.97;;;2.93;;
48853;SDS011;34673;52.808;17.856;2023-09-30T08:19:39;13.75;;;3.88;;
48853;SDS011;34673;52.808;17.856;2023-09-30T08:22:06;14.13;;;3.95;;
48853;SDS011;34673;52.808;17.856;2023-09-30T08:24:34;10.25;;;3.30;;
48853;SDS011;34673;52.808;17.856;2023-09-30T08:27:01;10.98;;;3.35;;
48853;SDS011;34673;52.808;17.856;2023-09-30T08:29:29;19.52;;;4.15;;
48853;SDS011;34673;52.808;17.856;2023-09-30T08:31:56;17.05;;;3.65;;
48853;SDS011;34673;52.808;17.856;2023-09-30T08:34:23;12.90;;;3.30;;
48853;SDS011;34673;52.808;17.856;2023-09-30T08:36:50;13.23;;;3.05;;
48853;SDS011;34673;52.808;17.856;2023-09-30T08:39:18;13.95;;;3.30;;
48853;SDS011;34673;52.808;17.856;2023-09-30T08:41:45;10.93;;;3.33;;
48853;SDS011;34673;52.808;17.856;2023-09-30T08:44:12;12.95;;;3.05;;
48853;SDS011;34673;52.808;17.856;2023-09-30T08:46:40;13.65;;;3.05;;
48853;SDS011;34673;52.808;17.856;2023-09-30T08:49:08;14.20;;;3.70;;
48853;SDS011;34673;52.808;17.856;2023-09-30T08:51:38;13.43;;;2.97;;
48853;SDS011;34673;52.808;17.856;2023-09-30T08:54:05;12.95;;;3.33;;
48853;SDS011;34673;52.808;17.856;2023-09-30T08:56:33;11.13;;;3.42;;
48853;SDS011;34673;52.808;17.856;2023-09-30T08:59:02;14.98;;;3.75;;
48853;SDS011;34673;52.808;17.856;2023-09-30T09:01:30;11.65;;;3.08;;
48853;SDS011;34673;52.808;17.856;2023-09-30T09:03:58;10.75;;;2.90;;
48853;SDS011;34673;52.808;17.856;2023-09-30T09:06:26;11.35;;;3.13;;
48853;SDS011;34673;52.808;17.856;2023-09-30T09:08:53;14.50;;;3.75;;
48853;SDS011;34673;52.808;17.856;2023-09-30T09:11:22;15.20;;;3.42;;
48853;SDS011;34673;52.808;17.856;2023-09-30T09:13:51;12.77;;;2.83;;
48853;SDS011;34673;52.808;17.856;2023-09-30T09:16:23;10.65;;;3.13;;
48853;SDS011;34673;52.808;17.856;2023-09-30T09:18:52;13.60;;;3.35;;
48853;SDS011;34673;52.808;17.856;2023-09-30T09:21:21;12.02;;;3.33;;
48853;SDS011;34673;52.808;17.856;2023-09-30T09:26:28;15.40;;;3.45;;
48853;SDS011;34673;52.808;17.856;2023-09-30T09:29:00;11.88;;;3.03;;
48853;SDS011;34673;52.808;17.856;2023-09-30T09:31:34;12.57;;;3.00;;
48853;SDS011;34673;52.808;17.856;2023-09-30T09:34:02;14.00;;;3.25;;
48853;SDS011;34673;52.808;17.856;2023-09-30T09:36:43;12.02;;;3.17;;
48853;SDS011;34673;52.808;17.856;2023-09-30T09:39:11;12.38;;;3.25;;
48853;SDS011;34673;52.808;17.856;2023-09-30T09:41:53;15.50;;;3.53;;
48853;SDS011;34673;52.808;17.856;2023-09-30T09:44:21;10.23;;;2.97;;
48853;SDS011;34673;52.808;17.856;2023-09-30T09:46:49;15.38;;;3.63;;
48853;SDS011;34673;52.808;17.856;2023-09-30T09:49:18;12.95;;;3.60;;
48853;SDS011;34673;52.808;17.856;2023-09-30T09:51:47;14.32;;;3.97;;
48853;SDS011;34673;52.808;17.856;2023-09-30T09:54:15;10.87;;;2.40;;
48853;SDS011;34673;52.808;17.856;2023-09-30T09:56:44;18.38;;;3.35;;
48853;SDS011;34673;52.808;17.856;2023-09-30T09:59:12;12.32;;;3.47;;
48853;SDS011;34673;52.808;17.856;2023-09-30T10:01:41;11.88;;;3.45;;
48853;SDS011;34673;52.808;17.856;2023-09-30T10:04:12;13.30;;;3.00;;
48853;SDS011;34673;52.808;17.856;2023-09-30T10:06:43;12.73;;;3.15;;
48853;SDS011;34673;52.808;17.856;2023-09-30T10:09:15;13.35;;;3.47;;
48853;SDS011;34673;52.808;17.856;2023-09-30T10:11:45;12.82;;;3.05;;
48853;SDS011;34673;52.808;17.856;2023-09-30T10:17:09;11.32;;;2.90;;
48853;SDS011;34673;52.808;17.856;2023-09-30T10:19:45;11.13;;;3.05;;
48853;SDS011;34673;52.808;17.856;2023-09-30T10:22:32;10.60;;;3.47;;
48853;SDS011;34673;52.808;17.856;2023-09-30T10:25:00;13.02;;;2.63;;
48853;SDS011;34673;52.808;17.856;2023-09-30T10:27:29;8.70;;;2.90;;
48853;SDS011;34673;52.808;17.856;2023-09-30T10:30:07;9.73;;;2.78;;
48853;SDS011;34673;52.808;17.856;2023-09-30T10:40:49;7.90;;;2.75;;
48853;SDS011;34673;52.808;17.856;2023-09-30T10:43:34;10.45;;;2.63;;
48853;SDS011;34673;52.808;17.856;2023-09-30T10:46:04;14.13;;;2.58;;
48853;SDS011;34673;52.808;17.856;2023-09-30T10:48:50;10.93;;;2.88;;
48853;SDS011;34673;52.808;17.856;2023-09-30T10:51:18;12.18;;;2.75;;
48853;SDS011;34673;52.808;17.856;2023-09-30T10:53:50;12.38;;;3.40;;
48853;SDS011;34673;52.808;17.856;2023-09-30T10:56:19;11.68;;;2.88;;
48853;SDS011;34673;52.808;17.856;2023-09-30T10:58:48;9.93;;;3.28;;
48853;SDS011;34673;52.808;17.856;2023-09-30T11:01:19;8.38;;;2.78;;
48853;SDS011;34673;52.808;17.856;2023-09-30T11:03:48;9.75;;;2.63;;
48853;SDS011;34673;52.808;17.856;2023-09-30T11:06:20;8.18;;;3.08;;
48853;SDS011;34673;52.808;17.856;2023-09-30T11:08:58;8.10;;;2.70;;
48853;SDS011;34673;52.808;17.856;2023-09-30T11:14:01;11.32;;;3.50;;
48853;SDS011;34673;52.808;17.856;2023-09-30T11:16:29;8.90;;;2.85;;
48853;SDS011;34673;52.808;17.856;2023-09-30T11:18:56;11.23;;;2.72;;
48853;SDS011;34673;52.808;17.856;2023-09-30T11:21:24;12.68;;;2.67;;
48853;SDS011;34673;52.808;17.856;2023-09-30T11:23:51;12.43;;;2.58;;
48853;SDS011;34673;52.808;17.856;2023-09-30T11:26:28;10.43;;;3.05;;
48853;SDS011;34673;52.808;17.856;2023-09-30T11:29:20;10.35;;;2.83;;
48853;SDS011;34673;52.808;17.856;2023-09-30T11:31:48;8.05;;;2.50;;
48853;SDS011;34673;52.808;17.856;2023-09-30T11:34:18;7.38;;;2.42;;
48853;SDS011;34673;52.808;17.856;2023-09-30T11:36:50;10.25;;;2.80;;
48853;SDS011;34673;52.808;17.856;2023-09-30T11:39:25;11.82;;;2.33;;
48853;SDS011;34673;52.808;17.856;2023-09-30T11:41:55;9.85;;;2.55;;
48853;SDS011;34673;52.808;17.856;2023-09-30T11:44:24;11.50;;;3.35;;
48853;SDS011;34673;52.808;17.856;2023-09-30T11:46:58;9.70;;;2.63;;
48853;SDS011;34673;52.808;17.856;2023-09-30T11:49:35;10.57;;;2.75;;
48853;SDS011;34673;52.808;17.856;2023-09-30T11:52:10;12.82;;;3.35;;
48853;SDS011;34673;52.808;17.856;2023-09-30T11:54:40;16.05;;;3.28;;
48853;SDS011;34673;52.808;17.856;2023-09-30T11:57:11;13.27;;;3.30;;
48853;SDS011;34673;52.808;17.856;2023-09-30T11:59:43;10.05;;;2.53;;
48853;SDS011;34673;52.808;17.856;2023-09-30T12:02:13;9.50;;;2.65;;
48853;SDS011;34673;52.808;17.856;2023-09-30T12:04:43;11.35;;;3.05;;
48853;SDS011;34673;52.808;17.856;2023-09-30T12:07:12;12.60;;;3.10;;
48853;SDS011;34673;52.808;17.856;2023-09-30T12:09:40;9.48;;;2.53;;
48853;SDS011;34673;52.808;17.856;2023-09-30T12:12:08;11.77;;;2.65;;
48853;SDS011;34673;52.808;17.856;2023-09-30T12:14:41;8.85;;;2.70;;
48853;SDS011;34673;52.808;17.856;2023-09-30T12:17:09;12.18;;;2.75;;
48853;SDS011;34673;52.808;17.856;2023-09-30T12:19:41;7.70;;;2.25;;
48853;SDS011;34673;52.808;17.856;2023-09-30T12:22:09;8.95;;;2.70;;
48853;SDS011;34673;52.808;17.856;2023-09-30T12:24:38;9.82;;;2.58;;
48853;SDS011;34673;52.808;17.856;2023-09-30T12:27:08;11.88;;;2.88;;
48853;SDS011;34673;52.808;17.856;2023-09-30T12:29:36;12.05;;;2.88;;
48853;SDS011;34673;52.808;17.856;2023-09-30T12:32:05;8.73;;;2.58;;
48853;SDS011;34673;52.808;17.856;2023-09-30T12:34:33;12.05;;;2.85;;
48853;SDS011;34673;52.808;17.856;2023-09-30T12:37:00;9.85;;;2.80;;
48853;SDS011;34673;52.808;17.856;2023-09-30T12:39:28;10.40;;;2.55;;
48853;SDS011;34673;52.808;17.856;2023-09-30T12:42:00;8.93;;;2.10;;
48853;SDS011;34673;52.808;17.856;2023-09-30T12:44:28;11.43;;;3.15;;
48853;SDS011;34673;52.808;17.856;2023-09-30T12:46:55;11.23;;;3.33;;
48853;SDS011;34673;52.808;17.856;2023-09-30T12:49:23;10.35;;;2.88;;
48853;SDS011;34673;52.808;17.856;2023-09-30T12:51:50;12.77;;;2.97;;
48853;SDS011;34673;52.808;17.856;2023-09-30T12:54:17;12.27;;;3.92;;
48853;SDS011;34673;52.808;17.856;2023-09-30T12:56:45;12.02;;;2.95;;
48853;SDS011;34673;52.808;17.856;2023-09-30T12:59:14;10.18;;;3.10;;
48853;SDS011;34673;52.808;17.856;2023-09-30T13:01:43;10.05;;;2.90;;
48853;SDS011;34673;52.808;17.856;2023-09-30T13:04:11;10.73;;;3.30;;
48853;SDS011;34673;52.808;17.856;2023-09-30T13:06:39;11.25;;;3.70;;
48853;SDS011;34673;52.808;17.856;2023-09-30T13:09:08;13.60;;;3.90;;
48853;SDS011;34673;52.808;17.856;2023-09-30T13:11:36;10.27;;;3.70;;
48853;SDS011;34673;52.808;17.856;2023-09-30T13:14:04;13.02;;;3.10;;
48853;SDS011;34673;52.808;17.856;2023-09-30T13:16:31;10.75;;;3.45;;
48853;SDS011;34673;52.808;17.856;2023-09-30T13:18:59;11.85;;;3.33;;
48853;SDS011;34673;52.808;17.856;2023-09-30T13:21:27;11.65;;;2.97;;
48853;SDS011;34673;52.808;17.856;2023-09-30T13:23:54;13.82;;;2.90;;
48853;SDS011;34673;52.808;17.856;2023-09-30T13:26:21;10.82;;;3.25;;
48853;SDS011;34673;52.808;17.856;2023-09-30T13:28:49;15.35;;;3.33;;
48853;SDS011;34673;52.808;17.856;2023-09-30T13:31:16;11.65;;;2.80;;
48853;SDS011;34673;52.808;17.856;2023-09-30T13:33:43;10.75;;;2.83;;
48853;SDS011;34673;52.808;17.856;2023-09-30T13:36:11;13.57;;;3.25;;
48853;SDS011;34673;52.808;17.856;2023-09-30T13:38:38;12.48;;;2.78;;
48853;SDS011;34673;52.808;17.856;2023-09-30T13:41:06;10.05;;;3.08;;
48853;SDS011;34673;52.808;17.856;2023-09-30T13:43:33;17.02;;;3.22;;
48853;SDS011;34673;52.808;17.856;2023-09-30T13:46:04;12.52;;;3.08;;
48853;SDS011;34673;52.808;17.856;2023-09-30T13:48:33;11.98;;;2.90;;
48853;SDS011;34673;52.808;17.856;2023-09-30T13:51:05;11.15;;;3.10;;
48853;SDS011;34673;52.808;17.856;2023-09-30T13:53:33;11.57;;;3.40;;
48853;SDS011;34673;52.808;17.856;2023-09-30T13:56:00;14.02;;;3.42;;
48853;SDS011;34673;52.808;17.856;2023-09-30T13:58:28;12.65;;;2.90;;
48853;SDS011;34673;52.808;17.856;2023-09-30T14:00:55;10.77;;;3.15;;
48853;SDS011;34673;52.808;17.856;2023-09-30T14:03:25;10.70;;;3.00;;
48853;SDS011;34673;52.808;17.856;2023-09-30T14:05:52;11.93;;;3.00;;
48853;SDS011;34673;52.808;17.856;2023-09-30T14:08:20;8.73;;;2.58;;
48853;SDS011;34673;52.808;17.856;2023-09-30T14:10:47;10.80;;;3.05;;
48853;SDS011;34673;52.808;17.856;2023-09-30T14:13:16;13.25;;;2.63;;
48853;SDS011;34673;52.808;17.856;2023-09-30T14:15:45;11.68;;;2.60;;
48853;SDS011;34673;52.808;17.856;2023-09-30T14:20:43;14.70;;;2.80;;
48853;SDS011;34673;52.808;17.856;2023-09-30T14:23:11;10.52;;;2.70;;
48853;SDS011;34673;52.808;17.856;2023-09-30T14:25:39;10.95;;;2.78;;
48853;SDS011;34673;52.808;17.856;2023-09-30T14:28:09;8.40;;;2.20;;
48853;SDS011;34673;52.808;17.856;2023-09-30T14:30:37;9.98;;;2.42;;
48853;SDS011;34673;52.808;17.856;2023-09-30T14:33:04;9.20;;;2.58;;
48853;SDS011;34673;52.808;17.856;2023-09-30T14:35:33;16.10;;;2.50;;
48853;SDS011;34673;52.808;17.856;2023-09-30T14:38:04;11.23;;;2.38;;
48853;SDS011;34673;52.808;17.856;2023-09-30T14:40:35;12.23;;;2.35;;
48853;SDS011;34673;52.808;17.856;2023-09-30T14:43:04;11.95;;;2.60;;
48853;SDS011;34673;52.808;17.856;2023-09-30T14:45:36;9.95;;;2.97;;
48853;SDS011;34673;52.808;17.856;2023-09-30T14:48:06;9.60;;;2.63;;
48853;SDS011;34673;52.808;17.856;2023-09-30T14:50:34;12.25;;;2.90;;
48853;SDS011;34673;52.808;17.856;2023-09-30T14:53:01;11.48;;;2.38;;
48853;SDS011;34673;52.808;17.856;2023-09-30T14:55:31;8.85;;;2.50;;
48853;SDS011;34673;52.808;17.856;2023-09-30T14:57:58;12.15;;;2.88;;
48853;SDS011;34673;52.808;17.856;2023-09-30T15:00:26;14.43;;;2.60;;
48853;SDS011;34673;52.808;17.856;2023-09-30T15:02:53;7.20;;;2.47;;